createdAt,value
2019-05-20T00:00:16.958Z,97.9
2019-05-20T00:01:16.996Z,98.0
2019-05-20T00:02:28.310Z,98.0
2019-05-20T00:03:16.755Z,98.0
2019-05-20T00:04:17.030Z,98.0
2019-05-20T00:05:16.389Z,98.0
2019-05-20T00:06:16.690Z,98.0
2019-05-20T00:07:16.941Z,98.0
2019-05-20T00:08:17.214Z,98.0
2019-05-20T00:09:16.492Z,97.9
2019-05-20T00:10:16.762Z,97.9
2019-05-20T00:11:16.807Z,98.0
2019-05-20T00:12:17.082Z,98.0
2019-05-20T00:13:16.387Z,98.0
2019-05-20T00:14:16.658Z,98.0
2019-05-20T00:15:16.931Z,97.9
2019-05-20T00:16:17.207Z,97.8
2019-05-20T00:17:16.473Z,97.9
2019-05-20T00:18:16.748Z,98.0
2019-05-20T00:19:17.022Z,98.0
2019-05-20T00:20:16.296Z,98.1
2019-05-20T00:21:16.368Z,98.2
2019-05-20T00:22:16.644Z,98.2
2019-05-20T00:23:16.919Z,98.0
2019-05-20T00:24:17.183Z,97.9
2019-05-20T00:25:16.464Z,97.8
2019-05-20T00:26:16.726Z,97.7
2019-05-20T00:27:16.999Z,97.5
2019-05-20T00:28:16.279Z,97.4
2019-05-20T00:29:16.558Z,97.6
2019-05-20T00:30:16.855Z,97.6
2019-05-20T00:31:16.903Z,97.4
2019-05-20T00:32:17.181Z,97.5
2019-05-20T00:33:16.444Z,97.7
2019-05-20T00:34:16.711Z,96.8
2019-05-20T00:35:17.027Z,96.8
2019-05-20T00:36:16.289Z,96.7
2019-05-20T00:37:16.563Z,96.8
2019-05-20T00:38:16.823Z,97.0
2019-05-20T00:39:17.109Z,96.8
2019-05-20T00:40:16.382Z,96.3
2019-05-20T00:41:16.456Z,96.3
2019-05-20T00:42:16.716Z,96.8
2019-05-20T00:43:17.003Z,97.0
2019-05-20T00:44:16.279Z,97.0
2019-05-20T00:45:16.574Z,97.2
2019-05-20T00:46:16.872Z,97.5
2019-05-20T00:47:17.148Z,97.7
2019-05-20T00:48:16.428Z,97.8
2019-05-20T00:49:16.754Z,97.9
2019-05-20T00:50:17.160Z,98.1
2019-05-20T00:51:17.119Z,98.2
2019-05-20T00:52:16.386Z,98.2
2019-05-20T00:53:16.654Z,98.0
2019-05-20T00:54:16.925Z,98.0
2019-05-20T00:55:17.189Z,98.0
2019-05-20T00:56:16.449Z,98.2
2019-05-20T00:57:16.714Z,98.2
2019-05-20T00:58:16.980Z,98.2
2019-05-20T00:59:17.258Z,98.3
2019-05-20T01:00:16.545Z,98.2
2019-05-20T01:01:16.599Z,98.2
2019-05-20T01:02:16.862Z,98.2
2019-05-20T01:03:17.142Z,98.2
2019-05-20T01:04:16.435Z,98.2
2019-05-20T01:05:16.799Z,98.2
2019-05-20T01:06:17.069Z,98.2
2019-05-20T01:07:16.341Z,98.2
2019-05-20T01:08:16.626Z,98.3
2019-05-20T01:09:16.889Z,98.5
2019-05-20T01:10:17.171Z,98.4
2019-05-20T01:11:17.229Z,98.3
2019-05-20T01:12:16.498Z,98.2
2019-05-20T01:13:16.776Z,98.2
2019-05-20T01:14:17.050Z,98.2
2019-05-20T01:15:16.322Z,98.2
2019-05-20T01:16:16.613Z,98.2
2019-05-20T01:17:16.884Z,98.2
2019-05-20T01:18:17.159Z,98.2
2019-05-20T01:19:16.424Z,98.2
2019-05-20T01:20:16.694Z,98.2
2019-05-20T01:21:16.758Z,98.2
2019-05-20T01:22:17.026Z,98.3
2019-05-20T01:23:16.290Z,98.4
2019-05-20T01:24:16.620Z,98.4
2019-05-20T01:25:16.894Z,98.3
2019-05-20T01:26:17.172Z,98.3
2019-05-20T01:27:16.437Z,98.2
2019-05-20T01:28:16.701Z,98.5
2019-05-20T01:29:16.968Z,98.6
2019-05-20T01:30:17.261Z,98.6
2019-05-20T01:31:16.326Z,98.7
2019-05-20T01:32:16.601Z,98.8
2019-05-20T01:33:16.869Z,98.8
2019-05-20T01:34:17.134Z,98.8
2019-05-20T01:35:16.417Z,98.8
2019-05-20T01:36:16.685Z,98.8
2019-05-20T01:37:16.953Z,98.9
2019-05-20T01:38:17.256Z,99.0
2019-05-20T01:39:16.531Z,99.0
2019-05-20T01:40:16.805Z,99.0
2019-05-20T01:41:16.879Z,99.0
2019-05-20T01:42:17.171Z,99.0
2019-05-20T01:43:16.439Z,99.0
2019-05-20T01:44:16.710Z,99.0
2019-05-20T01:45:16.979Z,99.0
2019-05-20T01:46:17.251Z,99.0
2019-05-20T01:47:16.522Z,99.0
2019-05-20T01:48:16.795Z,99.0
2019-05-20T01:49:17.063Z,99.0
2019-05-20T01:50:16.357Z,99.0
2019-05-20T01:51:16.402Z,99.0
2019-05-20T01:52:16.679Z,99.0
2019-05-20T01:53:16.946Z,99.0
2019-05-20T01:54:17.219Z,99.0
2019-05-20T01:55:16.490Z,99.0
2019-05-20T01:56:16.756Z,98.9
2019-05-20T01:57:17.023Z,98.8
2019-05-20T01:58:16.291Z,98.7
2019-05-20T01:59:16.591Z,98.6
2019-05-20T02:00:16.891Z,98.5
2019-05-20T02:01:16.941Z,98.4
2019-05-20T02:02:17.208Z,98.5
2019-05-20T02:03:31.457Z,98.5
2019-05-20T02:04:16.325Z,98.6
2019-05-20T02:05:16.599Z,98.7
2019-05-20T02:06:16.872Z,98.6
2019-05-20T02:07:17.143Z,98.5
2019-05-20T02:08:16.423Z,98.3
2019-05-20T02:09:16.696Z,98.3
2019-05-20T02:10:16.970Z,98.3
2019-05-20T02:11:17.022Z,98.3
2019-05-20T02:12:16.288Z,98.3
2019-05-20T02:13:16.566Z,98.3
2019-05-20T02:14:16.836Z,98.3
2019-05-20T02:15:17.112Z,98.3
2019-05-20T02:16:16.382Z,98.4
2019-05-20T02:17:16.659Z,98.5
2019-05-20T02:18:16.926Z,98.5
2019-05-20T02:19:17.187Z,98.6
2019-05-20T02:20:16.483Z,98.6
2019-05-20T02:21:16.523Z,98.7
2019-05-20T02:22:16.794Z,98.8
2019-05-20T02:23:17.078Z,98.7
2019-05-20T02:24:16.383Z,98.6
2019-05-20T02:25:16.661Z,98.5
2019-05-20T02:26:16.931Z,98.5
2019-05-20T02:27:17.205Z,98.5
2019-05-20T02:28:16.484Z,98.5
2019-05-20T02:29:16.757Z,98.5
2019-05-20T02:30:17.039Z,98.6
2019-05-20T02:31:17.103Z,98.7
2019-05-20T02:32:16.400Z,98.8
2019-05-20T02:33:16.699Z,98.6
2019-05-20T02:34:17.003Z,98.6
2019-05-20T02:35:16.307Z,98.7
2019-05-20T02:36:16.591Z,98.4
2019-05-20T02:37:16.883Z,98.3
2019-05-20T02:38:17.178Z,98.3
2019-05-20T02:39:16.470Z,98.3
2019-05-20T02:40:16.827Z,98.5
2019-05-20T02:41:16.796Z,98.7
2019-05-20T02:42:17.063Z,98.8
2019-05-20T02:43:16.369Z,98.8
2019-05-20T02:44:16.672Z,98.8
2019-05-20T02:45:16.947Z,98.9
2019-05-20T02:46:17.262Z,99.0
2019-05-20T02:47:16.549Z,99.0
2019-05-20T02:48:16.838Z,98.8
2019-05-20T02:49:17.126Z,98.7
2019-05-20T02:50:16.397Z,98.8
2019-05-20T02:51:16.478Z,98.8
2019-05-20T02:52:16.758Z,98.9
2019-05-20T02:53:17.022Z,98.9
2019-05-20T02:54:16.291Z,99.0
2019-05-20T02:55:16.577Z,99.0
2019-05-20T02:56:16.848Z,98.9
2019-05-20T02:57:17.128Z,99.0
2019-05-20T02:58:16.417Z,99.0
2019-05-20T02:59:16.680Z,98.9
2019-05-20T03:00:16.971Z,99.0
2019-05-20T03:01:17.016Z,99.0
2019-05-20T03:02:16.297Z,99.1
2019-05-20T03:03:16.734Z,99.1
2019-05-20T03:04:17.058Z,99.0
2019-05-20T03:05:16.336Z,99.1
2019-05-20T03:06:16.611Z,99.2
2019-05-20T03:07:16.883Z,99.1
2019-05-20T03:08:17.152Z,99.1
2019-05-20T03:09:16.449Z,99.0
2019-05-20T03:10:16.730Z,99.0
2019-05-20T03:11:16.787Z,99.0
2019-05-20T03:12:17.080Z,99.0
2019-05-20T03:13:16.356Z,98.9
2019-05-20T03:14:16.700Z,98.9
2019-05-20T03:15:16.981Z,99.0
2019-05-20T03:16:17.238Z,99.0
2019-05-20T03:17:16.523Z,99.0
2019-05-20T03:18:16.802Z,99.0
2019-05-20T03:19:17.085Z,99.0
2019-05-20T03:20:16.381Z,99.0
2019-05-20T03:21:16.440Z,99.0
2019-05-20T03:22:16.714Z,99.1
2019-05-20T03:23:17.010Z,99.1
2019-05-20T03:24:16.306Z,99.2
2019-05-20T03:25:16.584Z,99.2
2019-05-20T03:26:16.869Z,99.3
2019-05-20T03:27:17.135Z,99.3
2019-05-20T03:28:16.408Z,99.2
2019-05-20T03:29:16.682Z,99.2
2019-05-20T03:30:16.965Z,99.2
2019-05-20T03:31:17.067Z,99.2
2019-05-20T03:32:16.366Z,99.2
2019-05-20T03:33:16.656Z,99.2
2019-05-20T03:34:44.843Z,99.2
2019-05-20T03:35:16.321Z,99.2
2019-05-20T03:36:16.598Z,99.3
2019-05-20T03:37:16.891Z,99.3
2019-05-20T03:38:17.220Z,99.3
2019-05-20T03:39:16.503Z,99.0
2019-05-20T03:40:16.899Z,99.0
2019-05-20T03:41:16.892Z,98.8
2019-05-20T03:42:17.168Z,98.8
2019-05-20T03:43:16.446Z,98.8
2019-05-20T03:44:16.739Z,98.8
2019-05-20T03:45:17.037Z,98.9
2019-05-20T03:46:16.314Z,98.9
2019-05-20T03:47:16.588Z,99.0
2019-05-20T03:48:16.867Z,99.0
2019-05-20T03:49:17.160Z,99.0
2019-05-20T03:50:16.440Z,99.0
2019-05-20T03:51:16.510Z,99.0
2019-05-20T03:52:16.791Z,99.0
2019-05-20T03:53:17.073Z,99.0
2019-05-20T03:54:16.370Z,99.2
2019-05-20T03:55:16.660Z,99.2
2019-05-20T03:56:16.948Z,99.2
2019-05-20T03:57:17.219Z,99.2
2019-05-20T03:58:16.495Z,99.2
2019-05-20T03:59:16.771Z,99.2
2019-05-20T04:00:17.054Z,99.2
2019-05-20T04:01:17.144Z,99.2
2019-05-20T04:02:16.421Z,99.1
2019-05-20T04:03:16.714Z,99.0
2019-05-20T04:04:17.007Z,99.0
2019-05-20T04:05:16.291Z,99.0
2019-05-20T04:06:16.575Z,99.0
2019-05-20T04:07:16.848Z,99.1
2019-05-20T04:08:17.121Z,99.1
2019-05-20T04:09:16.394Z,99.1
2019-05-20T04:10:16.683Z,99.1
2019-05-20T04:11:16.756Z,99.1
2019-05-20T04:12:17.035Z,99.1
2019-05-20T04:13:16.378Z,99.1
2019-05-20T04:14:16.687Z,99.0
2019-05-20T04:15:16.955Z,99.1
2019-05-20T04:16:17.219Z,99.0
2019-05-20T04:17:16.542Z,99.0
2019-05-20T04:18:16.845Z,99.1
2019-05-20T04:19:17.155Z,99.0
2019-05-20T04:20:16.490Z,99.0
2019-05-20T04:21:16.513Z,99.0
2019-05-20T04:22:16.860Z,99.0
2019-05-20T04:23:17.138Z,99.0
2019-05-20T04:24:16.420Z,99.0
2019-05-20T04:25:16.718Z,99.0
2019-05-20T04:26:16.990Z,99.0
2019-05-20T04:27:17.267Z,99.0
2019-05-20T04:28:16.539Z,99.0
2019-05-20T04:29:16.824Z,99.0
2019-05-20T04:30:19.289Z,98.9
2019-05-20T04:31:17.167Z,98.8
2019-05-20T04:32:16.483Z,98.7
2019-05-20T04:33:16.755Z,98.6
2019-05-20T04:34:17.022Z,98.5
2019-05-20T04:35:23.460Z,98.5
2019-05-20T04:36:16.917Z,98.5
2019-05-20T04:37:17.188Z,98.4
2019-05-20T04:38:16.464Z,98.4
2019-05-20T04:39:16.731Z,98.3
2019-05-20T04:40:17.076Z,98.4
2019-05-20T04:41:17.070Z,98.3
2019-05-20T04:42:16.346Z,98.3
2019-05-20T04:43:16.625Z,98.2
2019-05-20T04:44:16.908Z,98.2
2019-05-20T04:45:17.204Z,98.2
2019-05-20T04:46:16.506Z,98.2
2019-05-20T04:47:16.778Z,98.2
2019-05-20T04:48:17.051Z,98.1
2019-05-20T04:49:16.318Z,98.1
2019-05-20T04:50:16.614Z,98.0
2019-05-20T04:51:16.687Z,98.0
2019-05-20T04:52:16.962Z,98.0
2019-05-20T04:53:17.243Z,98.0
2019-05-20T04:54:16.519Z,98.0
2019-05-20T04:55:16.821Z,98.0
2019-05-20T04:56:17.089Z,98.0
2019-05-20T04:57:16.362Z,98.0
2019-05-20T04:58:16.657Z,98.0
2019-05-20T04:59:16.941Z,98.0
2019-05-20T05:00:17.248Z,98.0
2019-05-20T05:01:16.299Z,98.0
2019-05-20T05:02:16.579Z,98.0
2019-05-20T05:03:16.860Z,98.0
2019-05-20T05:04:17.140Z,98.0
2019-05-20T05:05:16.415Z,98.0
2019-05-20T05:06:16.685Z,98.0
2019-05-20T05:07:16.960Z,98.0
2019-05-20T05:08:17.218Z,98.0
2019-05-20T05:09:16.495Z,98.0
2019-05-20T05:10:16.802Z,97.9
2019-05-20T05:11:16.867Z,98.0
2019-05-20T05:12:17.134Z,98.1
2019-05-20T05:13:16.413Z,98.0
2019-05-20T05:14:16.681Z,97.8
2019-05-20T05:15:16.981Z,97.8
2019-05-20T05:16:16.263Z,97.8
2019-05-20T05:17:16.534Z,97.8
2019-05-20T05:18:16.797Z,97.8
2019-05-20T05:19:17.077Z,97.8
2019-05-20T05:20:18.749Z,97.8
2019-05-20T05:21:16.427Z,97.8
2019-05-20T05:22:16.695Z,97.8
2019-05-20T05:23:16.956Z,97.8
2019-05-20T05:24:17.219Z,97.8
2019-05-20T05:25:16.491Z,97.7
2019-05-20T05:26:16.763Z,97.8
2019-05-20T05:27:17.033Z,97.8
2019-05-20T05:28:16.319Z,97.8
2019-05-20T05:29:16.599Z,97.8
2019-05-20T05:30:16.870Z,97.8
2019-05-20T05:31:16.937Z,97.8
2019-05-20T05:32:17.217Z,97.7
2019-05-20T05:33:16.492Z,97.6
2019-05-20T05:34:16.825Z,97.5
2019-05-20T05:35:17.158Z,97.4
2019-05-20T05:36:16.450Z,97.3
2019-05-20T05:37:16.743Z,97.2
2019-05-20T05:38:17.009Z,97.2
2019-05-20T05:39:16.276Z,97.0
2019-05-20T05:40:16.547Z,97.0
2019-05-20T05:41:16.595Z,97.0
2019-05-20T05:42:16.887Z,96.7
2019-05-20T05:43:17.170Z,96.6
2019-05-20T05:44:16.462Z,96.5
2019-05-20T05:45:16.758Z,96.3
2019-05-20T05:46:17.019Z,96.4
2019-05-20T05:47:16.305Z,96.3
2019-05-20T05:48:16.582Z,96.2
2019-05-20T05:49:16.846Z,96.1
2019-05-20T05:50:17.138Z,96.0
2019-05-20T05:51:17.222Z,96.0
2019-05-20T05:52:16.493Z,96.0
2019-05-20T05:53:16.771Z,96.0
2019-05-20T05:54:17.049Z,95.8
2019-05-20T05:55:16.422Z,95.5
2019-05-20T05:56:16.719Z,95.6
2019-05-20T05:57:16.995Z,95.5
2019-05-20T05:58:16.291Z,95.5
2019-05-20T05:59:16.558Z,95.3
2019-05-20T06:00:16.848Z,95.2
2019-05-20T06:01:16.893Z,95.1
2019-05-20T06:02:17.167Z,95.1
2019-05-20T06:03:16.447Z,95.2
2019-05-20T06:04:16.713Z,95.1
2019-05-20T06:05:17.045Z,94.8
2019-05-20T06:06:16.331Z,94.7
2019-05-20T06:07:16.610Z,94.5
2019-05-20T06:08:16.874Z,94.3
2019-05-20T06:09:17.135Z,94.3
2019-05-20T06:10:16.513Z,94.2
2019-05-20T06:11:16.476Z,94.2
2019-05-20T06:12:16.746Z,94.0
2019-05-20T06:13:17.021Z,93.7
2019-05-20T06:14:16.465Z,93.8
2019-05-20T06:15:16.791Z,93.9
2019-05-20T06:16:36.289Z,93.9
2019-05-20T06:17:17.077Z,93.7
2019-05-20T06:18:16.343Z,93.7
2019-05-20T06:19:16.686Z,93.7
2019-05-20T06:20:17.030Z,93.8
2019-05-20T06:21:17.048Z,93.8
2019-05-20T06:22:16.315Z,93.3
2019-05-20T06:23:16.586Z,93.5
2019-05-20T06:24:16.898Z,93.6
2019-05-20T06:25:17.243Z,93.8
2019-05-20T06:26:16.520Z,93.6
2019-05-20T06:27:16.797Z,93.5
2019-05-20T06:28:17.071Z,93.7
2019-05-20T06:29:16.347Z,93.6
2019-05-20T06:30:16.629Z,93.5
2019-05-20T06:31:16.690Z,93.8
2019-05-20T06:32:16.945Z,93.8
2019-05-20T06:33:17.234Z,93.4
2019-05-20T06:34:16.528Z,92.8
2019-05-20T06:35:16.819Z,93.1
2019-05-20T06:36:27.361Z,93.3
2019-05-20T06:37:16.680Z,93.2
2019-05-20T06:38:16.966Z,93.0
2019-05-20T06:39:17.319Z,93.2
2019-05-20T06:40:16.603Z,93.2
2019-05-20T06:41:16.667Z,93.3
2019-05-20T06:42:16.933Z,92.8
2019-05-20T06:43:17.197Z,92.9
2019-05-20T06:44:16.461Z,93.0
2019-05-20T06:45:16.735Z,93.1
2019-05-20T06:46:17.012Z,92.7
2019-05-20T06:47:16.278Z,92.6
2019-05-20T06:48:16.549Z,92.7
2019-05-20T06:49:16.817Z,92.8
2019-05-20T06:50:17.104Z,91.6
2019-05-20T06:51:17.168Z,91.4
2019-05-20T06:52:16.451Z,91.4
2019-05-20T06:53:16.710Z,90.9
2019-05-20T06:54:16.979Z,91.3
2019-05-20T06:55:17.255Z,90.9
2019-05-20T06:56:16.526Z,90.8
2019-05-20T06:57:16.790Z,90.8
2019-05-20T06:58:17.071Z,90.2
2019-05-20T06:59:16.347Z,90.4
2019-05-20T07:00:16.647Z,90.1
2019-05-20T07:01:16.833Z,89.6
2019-05-20T07:02:17.106Z,89.9
2019-05-20T07:03:16.384Z,89.4
2019-05-20T07:04:16.658Z,89.6
2019-05-20T07:05:16.922Z,89.7
2019-05-20T07:06:17.192Z,89.7
2019-05-20T07:07:21.478Z,89.9
2019-05-20T07:08:16.917Z,90.2
2019-05-20T07:09:17.209Z,90.5
2019-05-20T07:10:16.496Z,89.8
2019-05-20T07:11:16.550Z,89.3
2019-05-20T07:12:16.820Z,89.3
2019-05-20T07:13:17.092Z,89.6
2019-05-20T07:14:16.375Z,90.0
2019-05-20T07:15:16.678Z,90.0
2019-05-20T07:16:16.955Z,90.2
2019-05-20T07:17:17.233Z,89.9
2019-05-20T07:18:16.498Z,89.8
2019-05-20T07:19:16.769Z,89.4
2019-05-20T07:20:17.055Z,89.2
2019-05-20T07:21:17.106Z,88.8
2019-05-20T07:22:16.371Z,89.0
2019-05-20T07:23:16.659Z,89.4
2019-05-20T07:24:16.941Z,89.5
2019-05-20T07:25:17.361Z,89.1
2019-05-20T07:26:16.640Z,89.3
2019-05-20T07:27:16.917Z,88.6
2019-05-20T07:28:17.186Z,88.6
2019-05-20T07:29:16.463Z,89.0
2019-05-20T07:30:16.750Z,89.1
2019-05-20T07:31:16.861Z,88.7
2019-05-20T07:32:17.313Z,88.6
2019-05-20T07:33:16.605Z,89.0
2019-05-20T07:34:17.951Z,89.1
2019-05-20T07:35:30.009Z,89.9
2019-05-20T07:36:16.918Z,89.3
2019-05-20T07:37:17.206Z,89.6
2019-05-20T07:38:16.475Z,89.3
2019-05-20T07:39:16.764Z,88.5
2019-05-20T07:40:17.061Z,87.7
2019-05-20T07:41:17.097Z,88.0
2019-05-20T07:42:16.360Z,87.1
2019-05-20T07:43:16.637Z,87.5
2019-05-20T07:44:16.902Z,87.5
2019-05-20T07:45:17.253Z,87.8
2019-05-20T07:46:16.698Z,86.9
2019-05-20T07:47:16.954Z,88.2
2019-05-20T07:48:17.681Z,87.2
2019-05-20T07:49:17.027Z,86.8
2019-05-20T07:50:16.595Z,87.2
2019-05-20T07:51:16.365Z,87.5
2019-05-20T07:52:16.637Z,87.2
2019-05-20T07:53:16.902Z,87.3
2019-05-20T07:54:17.169Z,86.9
2019-05-20T07:55:16.434Z,87.1
2019-05-20T07:56:16.740Z,87.3
2019-05-20T07:57:17.062Z,86.9
2019-05-20T07:58:16.428Z,86.9
2019-05-20T07:59:16.779Z,87.3
2019-05-20T08:00:17.100Z,87.3
2019-05-20T08:01:17.155Z,87.2
2019-05-20T08:02:16.432Z,87.7
2019-05-20T08:03:16.707Z,88.8
2019-05-20T08:04:17.043Z,88.3
2019-05-20T08:05:16.339Z,87.2
2019-05-20T08:06:16.615Z,86.8
2019-05-20T08:07:48.592Z,87.2
2019-05-20T08:08:16.283Z,87.0
2019-05-20T08:09:16.655Z,86.8
2019-05-20T08:10:17.052Z,86.7
2019-05-20T08:11:17.018Z,86.8
2019-05-20T08:12:16.296Z,87.0
2019-05-20T08:13:16.577Z,87.2
2019-05-20T08:14:16.855Z,87.8
2019-05-20T08:15:17.129Z,88.0
2019-05-20T08:16:16.433Z,87.9
2019-05-20T08:17:16.718Z,88.4
2019-05-20T08:18:20.453Z,88.2
2019-05-20T08:19:16.796Z,88.5
2019-05-20T08:20:17.176Z,88.2
2019-05-20T08:21:17.142Z,88.2
2019-05-20T08:22:16.420Z,88.2
2019-05-20T08:23:16.697Z,88.3
2019-05-20T08:24:16.973Z,88.6
2019-05-20T08:25:17.244Z,88.3
2019-05-20T08:26:16.514Z,88.6
2019-05-20T08:27:16.770Z,89.2
2019-05-20T08:28:17.088Z,89.6
2019-05-20T08:29:16.359Z,89.8
2019-05-20T08:30:16.654Z,89.9
2019-05-20T08:31:16.668Z,89.3
2019-05-20T08:32:16.929Z,89.6
2019-05-20T08:33:17.161Z,89.9
2019-05-20T08:34:16.444Z,89.8
2019-05-20T08:35:16.738Z,89.9
2019-05-20T08:36:17.011Z,90.0
2019-05-20T08:37:16.288Z,90.2
2019-05-20T08:38:16.563Z,89.5
2019-05-20T08:39:16.836Z,88.9
2019-05-20T08:40:17.127Z,89.3
2019-05-20T08:41:17.191Z,89.6
2019-05-20T08:42:16.466Z,89.5
2019-05-20T08:43:16.731Z,89.8
2019-05-20T08:44:17.019Z,89.8
2019-05-20T08:45:16.292Z,89.8
2019-05-20T08:46:16.593Z,89.8
2019-05-20T08:47:16.872Z,90.3
2019-05-20T08:48:17.198Z,90.3
2019-05-20T08:49:16.492Z,90.8
2019-05-20T08:50:16.770Z,90.8
2019-05-20T08:51:16.872Z,90.8
2019-05-20T08:52:17.134Z,90.8
2019-05-20T08:53:16.419Z,91.0
2019-05-20T08:54:16.738Z,91.2
2019-05-20T08:55:17.022Z,91.1
2019-05-20T08:56:16.353Z,91.3
2019-05-20T08:57:16.783Z,91.5
2019-05-20T08:58:17.149Z,92.2
2019-05-20T08:59:16.431Z,92.3
2019-05-20T09:00:24.455Z,92.7
2019-05-20T09:01:16.775Z,92.8
2019-05-20T09:02:17.055Z,92.8
2019-05-20T09:03:16.331Z,92.6
2019-05-20T09:04:16.626Z,92.4
2019-05-20T09:05:16.903Z,92.9
2019-05-20T09:06:21.094Z,93.2
2019-05-20T09:07:16.432Z,93.2
2019-05-20T09:08:16.737Z,93.4
2019-05-20T09:09:17.026Z,93.3
2019-05-20T09:10:18.571Z,93.4
2019-05-20T09:11:16.399Z,93.6
2019-05-20T09:12:16.667Z,94.2
2019-05-20T09:13:16.939Z,94.1
2019-05-20T09:14:17.218Z,93.8
2019-05-20T09:15:16.494Z,93.8
2019-05-20T09:16:16.765Z,94.2
2019-05-20T09:17:17.047Z,94.4
2019-05-20T09:18:16.331Z,94.8
2019-05-20T09:19:16.613Z,94.0
2019-05-20T09:20:16.891Z,94.1
2019-05-20T09:21:16.952Z,94.1
2019-05-20T09:22:17.223Z,93.9
2019-05-20T09:23:16.493Z,93.9
2019-05-20T09:24:19.226Z,93.8
2019-05-20T09:25:16.572Z,94.5
2019-05-20T09:26:16.940Z,94.6
2019-05-20T09:27:18.869Z,94.8
2019-05-20T09:28:17.141Z,94.2
2019-05-20T09:29:16.422Z,94.3
2019-05-20T09:30:16.714Z,93.8
2019-05-20T09:31:16.766Z,94.1
2019-05-20T09:32:17.028Z,93.8
2019-05-20T09:33:16.309Z,94.6
2019-05-20T09:34:16.577Z,93.9
2019-05-20T09:35:16.867Z,94.0
2019-05-20T09:36:17.155Z,94.2
2019-05-20T09:37:16.452Z,94.2
2019-05-20T09:38:21.488Z,94.7
2019-05-20T09:39:16.824Z,94.4
2019-05-20T09:40:17.114Z,93.7
2019-05-20T09:41:17.202Z,93.8
2019-05-20T09:42:16.498Z,93.8
2019-05-20T09:43:16.767Z,94.0
2019-05-20T09:44:17.032Z,93.3
2019-05-20T09:45:16.332Z,92.9
2019-05-20T09:46:16.590Z,93.4
2019-05-20T09:47:16.860Z,93.5
2019-05-20T09:48:17.133Z,93.7
2019-05-20T09:49:16.404Z,93.3
2019-05-20T09:50:16.706Z,93.6
2019-05-20T09:51:16.758Z,92.7
2019-05-20T09:52:17.029Z,92.7
2019-05-20T09:53:16.307Z,93.2
2019-05-20T09:54:16.580Z,93.4
2019-05-20T09:55:16.889Z,92.8
2019-05-20T09:56:17.170Z,92.5
2019-05-20T09:57:16.447Z,92.3
2019-05-20T09:58:16.766Z,92.6
2019-05-20T09:59:17.072Z,92.4
2019-05-20T10:00:16.356Z,92.8
2019-05-20T10:01:16.415Z,92.3
2019-05-20T10:02:16.688Z,92.2
2019-05-20T10:03:16.965Z,92.3
2019-05-20T10:04:17.236Z,92.8
2019-05-20T10:05:16.515Z,91.8
2019-05-20T10:06:16.785Z,92.0
2019-05-20T10:07:17.059Z,91.5
2019-05-20T10:08:16.343Z,91.2
2019-05-20T10:09:16.606Z,90.9
2019-05-20T10:10:16.902Z,91.1
2019-05-20T10:11:16.970Z,91.0
2019-05-20T10:12:17.243Z,90.9
2019-05-20T10:13:16.514Z,91.5
2019-05-20T10:14:16.807Z,92.0
2019-05-20T10:15:17.155Z,92.1
2019-05-20T10:16:16.449Z,91.3
2019-05-20T10:17:16.791Z,91.5
2019-05-20T10:18:37.061Z,91.7
2019-05-20T10:19:17.151Z,92.1
2019-05-20T10:20:16.447Z,92.0
2019-05-20T10:21:16.482Z,92.9
2019-05-20T10:22:16.752Z,92.6
2019-05-20T10:23:17.022Z,92.5
2019-05-20T10:24:16.285Z,93.1
2019-05-20T10:25:16.556Z,93.0
2019-05-20T10:26:16.837Z,92.8
2019-05-20T10:27:17.103Z,92.2
2019-05-20T10:28:16.378Z,92.4
2019-05-20T10:29:16.654Z,92.5
2019-05-20T10:30:16.927Z,92.5
2019-05-20T10:31:16.974Z,93.0
2019-05-20T10:32:17.249Z,93.2
2019-05-20T10:33:16.528Z,93.2
2019-05-20T10:34:16.803Z,93.1
2019-05-20T10:35:17.064Z,93.4
2019-05-20T10:36:16.342Z,93.5
2019-05-20T10:37:16.620Z,93.7
2019-05-20T10:38:16.876Z,92.7
2019-05-20T10:39:17.164Z,92.5
2019-05-20T10:40:16.439Z,92.9
2019-05-20T10:41:16.540Z,92.6
2019-05-20T10:42:16.829Z,92.8
2019-05-20T10:43:17.107Z,92.7
2019-05-20T10:44:16.389Z,92.0
2019-05-20T10:45:16.658Z,92.5
2019-05-20T10:46:16.924Z,92.2
2019-05-20T10:47:17.196Z,92.0
2019-05-20T10:48:16.456Z,91.8
2019-05-20T10:49:16.720Z,91.7
2019-05-20T10:50:16.987Z,92.1
2019-05-20T10:51:17.072Z,92.2
2019-05-20T10:52:16.348Z,92.6
2019-05-20T10:53:16.632Z,92.6
2019-05-20T10:54:16.922Z,92.5
2019-05-20T10:55:17.219Z,92.8
2019-05-20T10:56:16.496Z,92.7
2019-05-20T10:57:16.778Z,92.4
2019-05-20T10:58:17.127Z,92.9
2019-05-20T10:59:16.421Z,92.3
2019-05-20T11:00:16.706Z,92.0
2019-05-20T11:01:16.763Z,91.8
2019-05-20T11:02:17.099Z,91.9
2019-05-20T11:03:16.377Z,91.9
2019-05-20T11:04:16.664Z,91.3
2019-05-20T11:05:16.946Z,91.2
2019-05-20T11:06:17.231Z,91.2
2019-05-20T11:07:16.511Z,90.6
2019-05-20T11:08:16.777Z,91.0
2019-05-20T11:09:17.062Z,90.7
2019-05-20T11:10:16.391Z,91.1
2019-05-20T11:11:16.408Z,91.2
2019-05-20T11:12:16.678Z,91.0
2019-05-20T11:13:16.947Z,91.3
2019-05-20T11:14:17.222Z,91.2
2019-05-20T11:15:16.501Z,91.2
2019-05-20T11:16:16.780Z,90.8
2019-05-20T11:17:17.051Z,91.5
2019-05-20T11:18:16.336Z,91.8
2019-05-20T11:19:16.601Z,91.9
2019-05-20T11:20:16.895Z,91.2
2019-05-20T11:21:16.918Z,91.3
2019-05-20T11:22:17.184Z,91.0
2019-05-20T11:23:16.462Z,91.2
2019-05-20T11:24:16.740Z,91.3
2019-05-20T11:25:17.077Z,91.4
2019-05-20T11:26:16.358Z,91.7
2019-05-20T11:27:16.621Z,91.7
2019-05-20T11:28:16.888Z,91.2
2019-05-20T11:29:17.166Z,90.6
2019-05-20T11:30:16.499Z,90.9
2019-05-20T11:31:16.536Z,90.7
2019-05-20T11:32:16.845Z,91.1
2019-05-20T11:33:17.110Z,90.8
2019-05-20T11:34:16.380Z,90.8
2019-05-20T11:35:16.655Z,90.7
2019-05-20T11:36:16.922Z,89.5
2019-05-20T11:37:17.194Z,89.2
2019-05-20T11:38:16.465Z,88.4
2019-05-20T11:39:33.064Z,88.1
2019-05-20T11:40:16.699Z,87.6
2019-05-20T11:41:16.791Z,87.0
2019-05-20T11:42:17.067Z,86.7
2019-05-20T11:43:16.341Z,86.9
2019-05-20T11:44:16.612Z,87.2
2019-05-20T11:45:16.895Z,86.1
2019-05-20T11:46:17.185Z,86.5
2019-05-20T11:47:16.461Z,87.2
2019-05-20T11:48:16.728Z,86.2
2019-05-20T11:49:17.007Z,86.5
2019-05-20T11:50:16.675Z,87.2
2019-05-20T11:51:16.340Z,86.7
2019-05-20T11:52:16.615Z,86.5
2019-05-20T11:53:16.885Z,86.5
2019-05-20T11:54:17.165Z,87.6
2019-05-20T11:55:16.435Z,87.0
2019-05-20T11:56:16.721Z,87.2
2019-05-20T11:57:16.988Z,87.6
2019-05-20T11:58:16.880Z,88.4
2019-05-20T11:59:17.236Z,88.3
2019-05-20T12:00:16.512Z,88.2
2019-05-20T12:01:16.572Z,87.2
2019-05-20T12:02:16.858Z,87.2
2019-05-20T12:03:17.147Z,88.0
2019-05-20T12:04:16.417Z,87.7
2019-05-20T12:05:16.697Z,87.2
2019-05-20T12:06:16.993Z,87.7
2019-05-20T12:07:16.259Z,87.3
2019-05-20T12:08:16.588Z,86.7
2019-05-20T12:09:16.856Z,86.5
2019-05-20T12:10:17.314Z,86.2
2019-05-20T12:11:17.211Z,86.3
2019-05-20T12:12:16.490Z,86.0
2019-05-20T12:13:16.763Z,86.3
2019-05-20T12:14:17.049Z,86.2
2019-05-20T12:15:16.317Z,86.5
2019-05-20T12:16:16.603Z,85.8
2019-05-20T12:17:16.863Z,85.7
2019-05-20T12:18:17.205Z,85.4
2019-05-20T12:19:16.475Z,85.0
2019-05-20T12:20:16.747Z,85.6
2019-05-20T12:21:16.809Z,85.7
2019-05-20T12:22:17.076Z,86.0
2019-05-20T12:23:16.358Z,85.8
2019-05-20T12:24:16.637Z,86.0
2019-05-20T12:25:16.899Z,86.5
2019-05-20T12:26:17.180Z,86.2
2019-05-20T12:27:16.444Z,85.8
2019-05-20T12:28:16.711Z,86.3
2019-05-20T12:29:17.008Z,85.8
2019-05-20T12:30:16.550Z,85.4
2019-05-20T12:31:16.364Z,85.2
2019-05-20T12:32:16.639Z,85.0
2019-05-20T12:33:19.920Z,84.9
2019-05-20T12:34:16.305Z,85.2
2019-05-20T12:35:16.587Z,85.9
2019-05-20T12:36:16.859Z,86.0
2019-05-20T12:37:17.139Z,86.9
2019-05-20T12:38:16.403Z,86.6
2019-05-20T12:39:16.704Z,87.0
2019-05-20T12:40:17.004Z,86.9
2019-05-20T12:41:17.078Z,86.5
2019-05-20T12:42:16.347Z,85.6
2019-05-20T12:43:16.637Z,85.2
2019-05-20T12:44:16.909Z,85.9
2019-05-20T12:45:17.174Z,86.0
2019-05-20T12:46:16.446Z,85.4
2019-05-20T12:47:16.717Z,85.7
2019-05-20T12:48:17.021Z,84.8
2019-05-20T12:49:16.563Z,84.9
2019-05-20T12:50:16.957Z,84.8
2019-05-20T12:51:16.999Z,83.8
2019-05-20T12:52:16.265Z,83.7
2019-05-20T12:53:16.542Z,84.2
2019-05-20T12:54:16.846Z,84.5
2019-05-20T12:55:17.112Z,84.0
2019-05-20T12:56:19.951Z,84.6
2019-05-20T12:57:16.318Z,84.2
2019-05-20T12:58:16.594Z,83.8
2019-05-20T12:59:16.862Z,83.4
2019-05-20T13:00:17.442Z,83.6
2019-05-20T13:01:17.194Z,83.5
2019-05-20T13:02:17.756Z,83.0
2019-05-20T13:03:17.182Z,82.3
2019-05-20T13:04:16.503Z,81.8
2019-05-20T13:05:16.803Z,82.3
2019-05-20T13:06:17.063Z,82.8
2019-05-20T13:07:16.370Z,83.0
2019-05-20T13:08:16.645Z,83.1
2019-05-20T13:09:16.918Z,83.2
2019-05-20T13:10:31.983Z,83.2
2019-05-20T13:11:16.661Z,82.6
2019-05-20T13:12:16.930Z,82.8
2019-05-20T13:13:17.208Z,83.2
2019-05-20T13:14:16.482Z,82.6
2019-05-20T13:15:16.758Z,83.1
2019-05-20T13:16:17.029Z,83.1
2019-05-20T13:17:16.302Z,83.2
2019-05-20T13:18:16.579Z,83.1